This is the latest recevied weather packets stored in our database for station/object WR7DW-3. If no packets are shown the sender has not sent any weather packets the latest 10 day(s).
| Time | Temp. | Humidity | Pressure | Rain* | Wind** | Luminosity | Snow |
|---|---|---|---|---|---|---|---|
| 1777814985 | 6.11° C | 45% | 1006.5 hPa | 0 mm | - | - | - |
| 1777802385 | 6.67° C | 56% | 1007.2 hPa | 0 mm | - | - | - |
| 1777800585 | 7.22° C | 56% | 1007.2 hPa | 0 mm | - | - | - |
| 1777799689 | 7.22° C | 56% | 1007.2 hPa | 0 mm | - | - | - |
| 1777798785 | 7.22° C | 55% | 1007.4 hPa | 0 mm | - | - | - |
| 1777796985 | 7.78° C | 53% | 1007.4 hPa | 0 mm | - | - | - |
| 1777796088 | 7.78° C | 54% | 1007.6 hPa | 0 mm | - | - | - |
| 1777795185 | 7.78° C | 54% | 1007.5 hPa | 0 mm | - | - | - |
| 1777793385 | 7.78° C | 54% | 1007.6 hPa | 0 mm | - | - | - |
| 1777792489 | 7.78° C | 54% | 1007.7 hPa | 0 mm | - | - | - |
| 1777791585 | 7.78° C | 53% | 1007.7 hPa | 0 mm | - | - | - |
| 1777790685 | 7.78° C | 53% | 1007.8 hPa | 0 mm | - | - | - |
| 1777789785 | 7.78° C | 53% | 1007.7 hPa | 0 mm | - | - | - |
| 1777788885 | 7.78° C | 53% | 1007.6 hPa | 0 mm | - | - | - |
| 1777787985 | 8.33° C | 53% | 1007.5 hPa | 0 mm | - | - | - |
| 1777787086 | 8.33° C | 52% | 1007.6 hPa | 0 mm | - | - | - |
| 1777785285 | 8.33° C | 52% | 1007.7 hPa | 0 mm | - | - | - |
| 1777784386 | 8.33° C | 52% | 1007.6 hPa | 0 mm | - | - | - |
| 1777783486 | 8.33° C | 51% | 1007.7 hPa | 0 mm | - | - | - |
| 1777782585 | 8.33° C | 52% | 1007.7 hPa | 0 mm | - | - | - |
| 1777781686 | 8.33° C | 51% | 1007.8 hPa | 0 mm | - | - | - |
| 1777780786 | 8.33° C | 50% | 1007.7 hPa | 0 mm | - | - | - |
| 1777779886 | 8.33° C | 51% | 1007.6 hPa | 0 mm | - | - | - |
| 1777778986 | 8.33° C | 54% | 1007.7 hPa | 0 mm | - | - | - |
| 1777778086 | 8.33° C | 56% | 1007.6 hPa | 0 mm | - | - | - |
* Rain latest hour (hover to see other rain measurements)
** Current wind speed in m/s (hover to see current wind gust speed)